Home > Products > Valid Products > TAF

000
FTUS41 KBGM 231700
TAFELM
TAF
KELM 231725Z 2318/2418 31012G22KT P6SM SCT025 OVC040
      TEMPO 2318/2321 OVC025
     FM240200 31005KT P6SM FEW040
     FM241300 35012G22KT P6SM SKC=



000
FTUS41 KBGM 231700
TAFAVP
TAF
KAVP 231725Z 2318/2418 32015G25KT P6SM SCT025 OVC035
      TEMPO 2318/2321 OVC025
     FM240200 32010KT P6SM SCT045
     FM241300 34012G22KT P6SM SKC=



000
FTUS41 KBGM 231700
TAFSYR
TAF
KSYR 231725Z 2318/2418 31015G25KT P6SM SCT025 OVC035
      TEMPO 2318/2322 OVC025
     FM240300 32010KT P6SM SCT040
     FM241300 34012G22KT P6SM SKC=



000
FTUS41 KBGM 231700
TAFBGM
TAF
KBGM 231725Z 2318/2418 32015G25KT P6SM SCT008 OVC015
      TEMPO 2318/2321 OVC008
     FM240300 33010KT P6SM SCT025
     FM241300 34012G22KT P6SM SKC=



000
FTUS41 KBGM 231700
TAFITH
TAF
KITH 231725Z 2318/2418 32015G25KT P6SM SCT006 OVC015
      TEMPO 2318/2322 OVC006
     FM240300 33010KT P6SM SCT025
     FM241300 34012G22KT P6SM SKC=



000
FTUS41 KBGM 231300 AAA
TAFAVP
TAF AMD
KAVP 231352Z 2314/2412 30015G25KT P6SM OVC025
      TEMPO 2314/2318 P6SM SCT025 OVC035
     FM231800 32015G25KT P6SM BKN045
     FM240000 32010G20KT P6SM SCT045=



000
FTUS41 KBGM 231300 AAA
TAFELM
TAF AMD
KELM 231352Z 2314/2412 31012G25KT P6SM SCT025 OVC035
      TEMPO 2314/2318 OVC025
     FM232100 32015G25KT P6SM BKN045
     FM240200 33010KT P6SM SKC=



000
FTUS41 KBGM 231300 AAA
TAFITH
TAF AMD
KITH 231352Z 2314/2412 32012G22KT P6SM -RA SCT003 OVC012
      TEMPO 2314/2317 3SM -RA BR OVC003
     FM231700 32015G25KT P6SM SCT008 OVC015
     FM232000 32015G25KT P6SM SCT015 OVC025
     FM240200 31010KT P6SM SCT025=



000
FTUS41 KBGM 231300 AAA
TAFSYR
TAF AMD
KSYR 231352Z 2314/2412 32015G25KT P6SM SCT015 OVC025
      TEMPO 2314/2318 -SHRA OVC015
     FM231800 32015G25KT P6SM SCT025 OVC035
     FM232200 32015G25KT P6SM BKN045
     FM240200 31012KT P6SM SKC=



000
FTUS41 KBGM 231300 AAA
TAFBGM
TAF AMD
KBGM 231352Z 2314/2412 32015G25KT P6SM SCT008 OVC015
      TEMPO 2314/2317 -SHRA OVC008
     FM232000 32015G25KT P6SM SCT015 OVC025
     FM240200 31010KT P6SM SCT025=



000
FTUS41 KBGM 231100 RRA
TAFELM
TAF
KELM 231158Z 2312/2412 30012G18KT P6SM -SHRA OVC015
      TEMPO 2312/2315 4SM -SHRA BR OVC022
     FM231500 32018G25KT P6SM BKN025 OVC040
     FM231900 32018G25KT P6SM BKN035
     FM232300 29010KT P6SM SKC=



000
FTUS41 KBGM 231100 RRA
TAFBGM
TAF
KBGM 231158Z 2312/2412 31012G20KT P6SM -SHRA OVC012
      TEMPO 2312/2315 4SM -SHRASN BR OVC005
     FM231600 32018G25KT P6SM BKN020
     FM232100 32018G28KT P6SM BKN035
     FM240200 33010KT P6SM SKC=



000
FTUS41 KBGM 231100 RRA
TAFSYR
TAF
KSYR 231158Z 2312/2412 29012KT 4SM -SHRA BR OVC008
      TEMPO 2313/2315 P6SM -SHRA OVC012
     FM231500 32015G22KT P6SM -SHRA OVC015
     FM231700 32018G25KT P6SM BKN025 OVC040
     FM232000 32018G25KT P6SM BKN035
     FM240200 31012KT P6SM SKC=



000
FTUS41 KBGM 231100 RRA
TAFITH
TAF
KITH 231158Z 2312/2412 32012G20KT 5SM -SHRA BR OVC006
      TEMPO 2312/2313 2SM -SHRA BR OVC004
     FM231400 32015G22KT P6SM -SHRA OVC012
      TEMPO 2314/2316 5SM -SHRA BR OVC008
     FM231600 32018G25KT P6SM BKN020 OVC035
     FM232000 32018G25KT P6SM BKN035
     FM240100 31010KT P6SM SKC=



000
FTUS41 KBGM 231100 RRA
TAFAVP
TAF
KAVP 231158Z 2312/2412 30012G20KT P6SM SCT025 OVC035
      TEMPO 2312/2316 P6SM -SHRA OVC025
     FM231600 32018G28KT P6SM BKN035
     FM240000 32012G20KT P6SM SKC=



000
FTUS41 KBGM 230900 AAA
TAFAVP
TAF AMD
KAVP 230914Z 2309/2406 30012G16KT P6SM OVC025
      TEMPO 2310/2314 P6SM -SHRA OVC025
     FM231400 32018G25KT P6SM BKN025
     FM231800 32018G28KT P6SM BKN035
     FM240000 32012G20KT P6SM SCT040=



000
FTUS41 KBGM 230900 AAA
TAFITH
TAF AMD
KITH 230914Z 2309/2406 32012G18KT 5SM -SHRA BR OVC006
      TEMPO 2309/2313 2SM -SHRA BR OVC004
     FM231400 32018G25KT P6SM BKN020
     FM232000 32018G25KT P6SM BKN035
     FM240100 31010KT P6SM SCT030=



000
FTUS41 KBGM 230900 AAA
TAFBGM
TAF AMD
KBGM 230914Z 2309/2406 31010G18KT P6SM -SHRA OVC008
      TEMPO 2309/2313 2SM -SHRASN BR OVC004
     FM231400 32018G25KT P6SM BKN020
     FM232100 32018G28KT P6SM BKN035
     FM240200 33012KT P6SM SCT030=



000
FTUS41 KBGM 230900 AAA
TAFELM
TAF AMD
KELM 230914Z 2309/2406 30012G18KT P6SM -SHRA OVC015
      TEMPO 2309/2313 4SM -SHRA BR OVC022
     FM231400 32018G25KT P6SM BKN025
     FM231900 32018G25KT P6SM BKN035
     FM232300 29012KT P6SM SCT035=



000
FTUS41 KBGM 230900 AAA
TAFSYR
TAF AMD
KSYR 230914Z 2309/2406 29012KT 4SM -SHRA BR OVC008
      TEMPO 2309/2313 P6SM -SHRA OVC012
     FM231400 32018G25KT P6SM BKN025 OVC040
     FM232000 32018G25KT P6SM BKN035
     FM240200 31012G20KT P6SM SCT035=



000
FTUS41 KBGM 230500
TAFELM
TAF
KELM 230537Z 2306/2406 28010G16KT P6SM OVC035
     FM230800 30012G18KT P6SM -SHRA OVC025
      TEMPO 2309/2313 4SM -SHRA BR OVC015
     FM231400 32018G25KT P6SM BKN025
     FM231900 32018G25KT P6SM BKN035
     FM232300 29012KT P6SM SCT035=



000
FTUS41 KBGM 230500
TAFAVP
TAF
KAVP 230537Z 2306/2406 31012G16KT P6SM OVC025
      TEMPO 2310/2313 P6SM -SHRA OVC015
     FM231400 32018G25KT P6SM BKN025
     FM231800 32018G28KT P6SM BKN035
     FM240000 32012G20KT P6SM SCT040=



000
FTUS41 KBGM 230500
TAFBGM
TAF
KBGM 230537Z 2306/2406 30010G16KT P6SM OVC025
     FM230900 32010G18KT P6SM -SHRA OVC012
      TEMPO 2309/2313 2SM -SHRASN BR OVC008
     FM231500 32018G25KT P6SM BKN020
     FM232100 32018G28KT P6SM BKN035
     FM240200 33012KT P6SM SCT030=



000
FTUS41 KBGM 230500
TAFSYR
TAF
KSYR 230537Z 2306/2406 28010G16KT P6SM OVC025
     FM230800 29012G18KT P6SM -SHRA OVC015
      TEMPO 2309/2313 3SM -SHRA BR OVC008
     FM231400 32018G25KT P6SM BKN025 OVC040
     FM232000 32018G25KT P6SM BKN035
     FM240200 31012G20KT P6SM SCT035=



000
FTUS41 KBGM 230500
TAFITH
TAF
KITH 230537Z 2306/2406 30010G16KT P6SM OVC025
     FM230800 32012G18KT 5SM -SHRA BR OVC012
      TEMPO 2309/2313 2SM -SHRA BR OVC008
     FM231500 32018G25KT P6SM BKN020
     FM232000 32018G25KT P6SM BKN035
     FM240100 31010KT P6SM SCT030=



000
FTUS41 KBGM 230300 AAB
TAFBGM
TAF AMD
KBGM 230322Z 2303/2324 32010G16KT P6SM OVC015
      TEMPO 2303/2307 OVC008
     FM230800 32010G18KT P6SM -SHRA OVC012
      TEMPO 2309/2313 2SM -SHRASN OVC008
     FM231500 32018G28KT P6SM BKN020
     FM232100 32018G28KT P6SM BKN035=



000
FTUS41 KBGM 230200 AAA
TAFBGM
TAF AMD
KBGM 230250Z 2303/2324 32010G16KT P6SM OVC015
     FM230800 32012G18KT P6SM -SHRA OVC012
      TEMPO 2310/2313 2SM -SHRASN OVC008
     FM231500 32018G28KT P6SM BKN020
     FM232100 32018G28KT P6SM BKN035=



000
FTUS41 KBGM 230200 AAA
TAFELM
TAF AMD
KELM 230248Z 2303/2324 28010G16KT P6SM OVC025
     FM230700 30012G18KT P6SM -SHRA OVC015
     FM231400 32018G28KT P6SM BKN025
     FM231900 32018G28KT P6SM BKN040=



000
FTUS41 KBGM 222300
TAFAVP
TAF
KAVP 222326Z 2300/2324 24008KT P6SM SCT050 BKN100
     FM230500 31012G16KT P6SM BKN025
      TEMPO 2310/2313 P6SM -SHRA OVC015
     FM231400 32018G28KT P6SM BKN030
     FM232100 32018G28KT P6SM SCT050=



000
FTUS41 KBGM 222300
TAFSYR
TAF
KSYR 222326Z 2300/2324 30010G16KT P6SM BKN020
     FM230600 29012G18KT 5SM -SHRA OVC015
     FM231600 30018G28KT P6SM BKN025
     FM232100 30018G28KT P6SM BKN035=



000
FTUS41 KBGM 222300
TAFITH
TAF
KITH 222326Z 2300/2324 32010G16KT P6SM BKN015
      TEMPO 2300/2302 SCT015 BKN035
     FM230600 32012G18KT 5SM -SHRA OVC012
      TEMPO 2309/2313 2SM -SHRASN OVC008
     FM231500 32018G28KT P6SM BKN020
     FM232100 32018G28KT P6SM BKN035=



000
FTUS41 KBGM 222300
TAFELM
TAF
KELM 222326Z 2300/2324 30012G16KT P6SM SCT020 BKN050
     FM230200 30012G16KT P6SM BKN025
     FM230700 32012G18KT P6SM -SHRA OVC015
     FM231400 32018G28KT P6SM BKN025
     FM231900 32018G28KT P6SM BKN040=



000
FTUS41 KBGM 222300
TAFBGM
TAF
KBGM 222326Z 2300/2324 30010G14KT P6SM SCT015 BKN045
     FM230300 30012G16KT P6SM BKN015
     FM230800 32012G18KT P6SM -SHRA OVC012
      TEMPO 2310/2313 2SM -SHRASN OVC008
     FM231500 32018G28KT P6SM BKN020
     FM232100 32018G28KT P6SM BKN035=



000
FTUS41 KBGM 222100 AAA
TAFSYR
TAF AMD
KSYR 222111Z 2221/2318 29010G16KT P6SM SCT025 BKN050
      TEMPO 2221/2224 BKN025
     FM230000 31012G18KT P6SM OVC020
     FM230700 30012G18KT P6SM -SHRA OVC015
     FM231400 32015G25KT P6SM OVC035=



000
FTUS41 KBGM 222100 AAA
TAFBGM
TAF AMD
KBGM 222105Z 2221/2318 22010KT P6SM SCT008 BKN050
      TEMPO 2221/2222 -SHRA BKN008 OVC025
     FM230100 31008G16KT P6SM OVC020
     FM230700 31010G18KT P6SM -SHRA OVC015
     FM231300 31015G25KT P6SM OVC025=



000
FTUS41 KBGM 221700
TAFBGM
TAF
KBGM 221730Z 2218/2318 22010KT P6SM -SHRA SCT040 OVC060
      TEMPO 2218/2219 28012G22KT 4SM -SHRA OVC025
     FM221900 29011KT P6SM OVC025
     FM230100 31008G16KT P6SM OVC020
     FM230700 31010G18KT P6SM -SHRA OVC015
     FM231300 31015G25KT P6SM OVC025=



000
FTUS41 KBGM 221700
TAFITH
TAF
KITH 221730Z 2218/2318 19010KT P6SM -SHRA SCT040 OVC080
      TEMPO 2218/2219 27012G22KT 4SM -SHRA OVC025
     FM221900 29011KT P6SM OVC025
     FM230500 30010G18KT P6SM -SHRA OVC015
      TEMPO 2308/2312 OVC009
     FM231400 30015G25KT P6SM OVC025=



000
FTUS41 KBGM 221700
TAFSYR
TAF
KSYR 221730Z 2218/2318 22009KT P6SM -SHRA SCT025 OVC060
      TEMPO 2218/2219 29010G20KT 4SM -SHRA OVC025
     FM221900 30012KT P6SM OVC025
     FM222200 31012G18KT P6SM OVC020
     FM230700 30012G18KT P6SM -SHRA OVC015
     FM231400 32015G25KT P6SM OVC035=



000
FTUS41 KBGM 221700
TAFELM
TAF
KELM 221730Z 2218/2318 24010KT P6SM -SHRA SCT035 OVC060
     FM221900 29008G16KT P6SM SCT035 BKN060
     FM230600 29010G18KT P6SM -SHRA OVC025
     FM231300 30014G22KT P6SM SCT025 OVC035=



000
FTUS41 KBGM 221700
TAFAVP
TAF
KAVP 221730Z 2218/2318 24008KT P6SM -SHRA SCT060 OVC090
      TEMPO 2219/2221 27015G25KT 4SM -SHRA OVC035
     FM222100 28011KT P6SM BKN035
     FM230000 30008G16KT P6SM SCT025 BKN040
     FM230900 31010G18KT P6SM OVC020
     FM231500 32015G25KT P6SM BKN040=



000
FTUS41 KBGM 221500 AAA
TAFELM
TAF AMD
KELM 221515Z 2215/2312 24010KT P6SM -SHRA SCT035 OVC050
      TEMPO 2215/2219 27012G22KT 4SM -SHRA OVC030
     FM221900 29008G16KT P6SM SCT035 BKN050
     FM230500 29010G18KT P6SM -SHRA OVC025=



000
FTUS41 KBGM 221100
TAFAVP
TAF
KAVP 221130Z 2212/2312 22007KT P6SM SCT100 BKN150
     FM221800 24008KT P6SM -SHRA SCT060 OVC090
      TEMPO 2220/2222 27015G25KT 4SM -TSRA OVC035CB
     FM222200 28011KT P6SM BKN025
     FM230000 30008G16KT P6SM SCT025 BKN040
     FM230900 31010G18KT P6SM OVC020=



000
FTUS41 KBGM 221100
TAFSYR
TAF
KSYR 221130Z 2212/2312 22008KT P6SM -SHRA OVC060
     FM221400 26009KT P6SM -SHRA SCT025 OVC050
      TEMPO 2216/2218 29010G20KT 4SM -SHRA OVC025
     FM221800 30012KT P6SM SCT020 OVC035
     FM222200 31012G18KT P6SM OVC020
     FM230600 31012G18KT P6SM -SHRA OVC015=



000
FTUS41 KBGM 221100
TAFELM
TAF
KELM 221130Z 2212/2312 24006KT P6SM SCT080 OVC120
     FM221500 24010KT P6SM -SHRA SCT035 OVC050
      TEMPO 2217/2219 27012G22KT 4SM -SHRA OVC030
     FM221900 29008G16KT P6SM SCT035 BKN050
     FM230500 29010G18KT P6SM -SHRA OVC025=



000
FTUS41 KBGM 221100
TAFBGM
TAF
KBGM 221130Z 2212/2312 21007KT P6SM SCT080 OVC120
     FM221600 24010KT P6SM -SHRA SCT040 OVC080
      TEMPO 2219/2221 28012G22KT 3SM -TSRA OVC025CB
     FM222100 29011KT P6SM SCT025 BKN035
     FM230100 31008G16KT P6SM BKN020
     FM230700 31010G18KT 5SM -SHRA OVC015=



000
FTUS41 KBGM 221100
TAFITH
TAF
KITH 221130Z 2212/2312 17007KT P6SM -SHRA SCT060 OVC100
     FM221500 22010KT P6SM -SHRA SCT040 OVC080
      TEMPO 2217/2220 27012G22KT 3SM -SHRA OVC025
     FM222000 29011KT P6SM SCT025 BKN035
     FM222300 31008G16KT P6SM BKN025
     FM230500 30010G18KT 4SM -SHRA OVC015=



000
FTUS41 KBGM 220800 AAA
TAFBGM
TAF AMD
KBGM 220843Z 2209/2306 19005KT P6SM SCT150 BKN200
     FM221300 22008KT P6SM SCT080 OVC120
     FM221600 24010KT P6SM -SHRA SCT040 OVC080
      TEMPO 2219/2221 28015G25KT 3SM -TSRA OVC025CB
     FM222100 29011KT P6SM SCT025 BKN035
     FM230100 31008G16KT P6SM BKN020=



000
FTUS41 KBGM 220800 AAA
TAFITH
TAF AMD
KITH 220843Z 2209/2306 19007KT P6SM SCT080 BKN120
     FM221500 22010KT P6SM -SHRA SCT040 OVC080
      TEMPO 2217/2219 27015G25KT 3SM -TSRA OVC025CB
     FM221900 29011KT P6SM SCT025 BKN035
     FM222300 31008G16KT P6SM BKN025=



000
FTUS41 KBGM 220800 AAA
TAFSYR
TAF AMD
KSYR 220843Z 2209/2306 16006KT P6SM SCT090 OVC150
     FM221200 22008KT P6SM OVC080
     FM221500 26010KT P6SM -SHRA SCT025 OVC050
      TEMPO 2216/2218 29010G20KT 4SM -SHRA OVC025
     FM221800 30012KT P6SM SCT020 OVC035
     FM222200 31012G18KT P6SM OVC020=



000
FTUS41 KBGM 220800 AAA
TAFELM
TAF AMD
KELM 220843Z 2209/2306 24006KT P6SM SCT080 OVC120
     FM221500 24012KT P6SM -SHRA SCT035 OVC050
      TEMPO 2217/2219 27015G25KT 4SM -TSRA OVC030CB
     FM221900 29008G16KT P6SM SCT035 BKN050=



000
FTUS41 KBGM 220800 AAA
TAFAVP
TAF AMD
KAVP 220843Z 2209/2306 22007KT P6SM SCT100 BKN150
     FM221900 24008KT P6SM -SHRA SCT060 OVC090
      TEMPO 2221/2223 27015G25KT 4SM -TSRA OVC035CB
     FM222300 29011KT P6SM SCT025 BKN035
     FM230400 31008G16KT P6SM BKN025=



000
FTUS41 KBGM 220500
TAFITH
TAF
KITH 220539Z 2206/2306 19007KT P6SM SCT080 BKN120
     FM221500 22010KT P6SM -SHRA SCT040 OVC080
      TEMPO 2217/2219 27015G25KT 3SM -TSRA OVC025CB
     FM221900 29011KT P6SM SCT025 BKN035
     FM222300 31008G16KT P6SM BKN025=



000
FTUS41 KBGM 220500
TAFAVP
TAF
KAVP 220539Z 2206/2306 21005KT P6SM SCT150 BKN200
     FM221300 23008KT P6SM SCT100 OVC150
     FM221800 24008KT P6SM -SHRA SCT060 OVC090
      TEMPO 2220/2222 27015G25KT 4SM -TSRA OVC035CB
     FM222200 29011KT P6SM SCT025 BKN035
     FM230400 31008G16KT P6SM BKN025=



000
FTUS41 KBGM 220500
TAFSYR
TAF
KSYR 220539Z 2206/2306 15007KT P6SM SCT090 OVC150
     FM221100 22008KT P6SM OVC080
     FM221500 26010KT P6SM -SHRA SCT025 OVC050
      TEMPO 2216/2218 29010G20KT 4SM -SHRA OVC025
     FM221800 30012KT P6SM SCT020 OVC035
     FM222200 31012G18KT P6SM OVC020=



000
FTUS41 KBGM 220500
TAFELM
TAF
KELM 220539Z 2206/2306 23003KT P6SM SCT100 OVC150
     FM221200 25008KT P6SM SCT080 OVC120
     FM221500 24012KT P6SM -SHRA SCT035 OVC050
      TEMPO 2217/2219 27015G25KT 4SM -TSRA OVC030CB
     FM221900 29008G16KT P6SM SCT035 BKN050=



000
FTUS41 KBGM 220500
TAFBGM
TAF
KBGM 220539Z 2206/2306 20005KT P6SM SCT150 BKN200
     FM221300 22008KT P6SM SCT080 OVC120
     FM221600 24010KT P6SM -SHRA SCT040 OVC080
      TEMPO 2218/2220 28015G25KT 3SM -TSRA OVC025CB
     FM222000 29011KT P6SM SCT025 BKN035
     FM230100 31008G16KT P6SM BKN020=



000
FTUS41 KBGM 212300
TAFBGM
TAF
KBGM 212340Z 2200/2224 20004KT P6SM SCT150 BKN200
     FM221300 22010KT P6SM OVC100
     FM221700 24010KT 4SM -SHRA SCT035 OVC040 PROB30 2217/2220 3SM
      -TSRA OVC030CB
     FM222100 29011KT P6SM SCT025 BKN035=



000
FTUS41 KBGM 212300
TAFITH
TAF
KITH 212340Z 2200/2224 17007KT P6SM SCT150 BKN200
     FM221300 23010KT P6SM OVC100
     FM221700 26011KT 4SM -SHRA SCT025 OVC040
     FM222000 30012KT P6SM SCT020 OVC035=



000
FTUS41 KBGM 212300
TAFAVP
TAF
KAVP 212340Z 2200/2224 16006KT P6SM SCT250
     FM221300 21008KT P6SM OVC120
     FM221800 24008KT 4SM -SHRA SCT035 OVC050 PROB30 2218/2221 4SM
      -TSRA OVC035CB
     FM222100 29011KT P6SM SCT025 BKN035=



000
FTUS41 KBGM 212300
TAFSYR
TAF
KSYR 212340Z 2200/2224 16007KT P6SM SCT150 BKN200
     FM221300 22010KT P6SM OVC100
     FM221600 26011KT 4SM -SHRA SCT025 OVC040
     FM221900 30012KT P6SM SCT020 OVC035=



000
FTUS41 KBGM 212300
TAFELM
TAF
KELM 212340Z 2200/2224 18004KT P6SM SCT150 BKN200
     FM221300 22010KT P6SM OVC100
     FM221600 24012KT 4SM -SHRA SCT035 OVC050
     FM222000 28011KT P6SM SCT035 BKN050=



000
FTUS41 KBGM 211700
TAFITH
TAF
KITH 211724Z 2118/2218 17008KT P6SM SCT150
     FM220000 17007KT P6SM BKN200
     FM221300 24010KT P6SM OVC100
      TEMPO 2215/2218 -SHRA OVC050=



000
FTUS41 KBGM 211700
TAFBGM
TAF
KBGM 211724Z 2118/2218 19008KT P6SM SCT150
     FM220000 21004KT P6SM BKN200
     FM221300 24010KT P6SM OVC100
      TEMPO 2216/2218 -SHRA OVC050=



000
FTUS41 KBGM 211700
TAFAVP
TAF
KAVP 211724Z 2118/2218 24007KT P6SM SKC
     FM220000 21003KT P6SM SCT250
     FM221300 23008KT P6SM OVC120
      TEMPO 2216/2218 -SHRA OVC050=



000
FTUS41 KBGM 211700
TAFSYR
TAF
KSYR 211724Z 2118/2218 20007KT P6SM SCT150
     FM220000 18005KT P6SM BKN200
     FM221300 24010KT P6SM OVC100
      TEMPO 2215/2218 -SHRA OVC050=



000
FTUS41 KBGM 211700
TAFELM
TAF
KELM 211724Z 2118/2218 21007KT P6SM SCT150
     FM220000 21004KT P6SM BKN200
     FM221300 24010KT P6SM OVC100
      TEMPO 2215/2218 -SHRA OVC050=



000
FTUS41 KBGM 211100
TAFBGM
TAF
KBGM 211129Z 2112/2212 20008KT P6SM SCT150
     FM220300 19004KT P6SM FEW120 OVC150=



000
FTUS41 KBGM 211100
TAFSYR
TAF
KSYR 211129Z 2112/2212 16004KT P6SM BKN150
     FM211500 24008KT P6SM SCT150
     FM220000 18004KT P6SM SCT100 OVC150=



000
FTUS41 KBGM 211100
TAFITH
TAF
KITH 211129Z 2112/2212 17007KT P6SM SCT150
     FM211600 22010KT P6SM SCT150
     FM220000 16007KT P6SM SCT100 OVC150=



000
FTUS41 KBGM 211100
TAFAVP
TAF
KAVP 211129Z 2112/2212 VRB05KT P6SM FEW150
     FM211400 23009KT P6SM FEW150
     FM220000 18004KT P6SM SCT150 BKN200=



000
FTUS41 KBGM 211100
TAFELM
TAF
KELM 211129Z 2112/2212 21007KT P6SM SCT150
     FM220000 VRB02KT P6SM SCT100 OVC150=



000
FTUS41 KBGM 210900 AAA
TAFSYR
TAF AMD
KSYR 210901Z 2109/2206 16004KT P6SM SCT180
     FM211500 23008KT P6SM SCT150
     FM220000 18004KT P6SM SCT100 OVC150=



000
FTUS41 KBGM 210900 AAA
TAFITH
TAF AMD
KITH 210901Z 2109/2206 17007KT P6SM SCT200
     FM211600 22010KT P6SM SCT150
     FM220000 16007KT P6SM BKN150=



000
FTUS41 KBGM 210900 AAA
TAFELM
TAF AMD
KELM 210901Z 2109/2206 21006KT P6SM SCT200=



000
FTUS41 KBGM 210900 AAA
TAFAVP
TAF AMD
KAVP 210901Z 2109/2206 VRB03KT P6SM SKC
     FM211400 23009KT P6SM FEW250
     FM220000 17004KT P6SM SCT200=



000
FTUS41 KBGM 210900 AAA
TAFBGM
TAF AMD
KBGM 210901Z 2109/2206 20008KT P6SM SCT200=



000
FTUS41 KBGM 210500
TAFITH
TAF
KITH 210525Z 2106/2206 17007KT P6SM SCT200
     FM211600 22010KT P6SM SCT150
     FM220000 16007KT P6SM BKN150=



000
FTUS41 KBGM 210500
TAFELM
TAF
KELM 210525Z 2106/2206 21006KT P6SM SCT200=



000
FTUS41 KBGM 210500
TAFBGM
TAF
KBGM 210525Z 2106/2206 20008KT P6SM SCT200=



000
FTUS41 KBGM 210500
TAFAVP
TAF
KAVP 210525Z 2106/2206 VRB03KT P6SM SKC
     FM211400 23009KT P6SM FEW250
     FM220000 17004KT P6SM SCT200=



000
FTUS41 KBGM 210500
TAFSYR
TAF
KSYR 210525Z 2106/2206 16004KT P6SM SCT180
     FM211500 23008KT P6SM SCT150
     FM220000 18004KT P6SM SCT100 OVC150=



000
FTUS41 KBGM 210100 AAA
TAFAVP
TAF AMD
KAVP 210104Z 2101/2124 18010G18KT P6SM SKC
     FM210300 16006KT P6SM SKC
     FM211600 20009KT P6SM SCT250=



000
FTUS41 KBGM 202300
TAFSYR
TAF
KSYR 202324Z 2100/2124 03004KT P6SM SCT250
     FM210300 17006KT P6SM BKN250
     FM211600 24007KT P6SM BKN250
     FM212100 25009KT P6SM OVC100=



000
FTUS41 KBGM 202300
TAFELM
TAF
KELM 202324Z 2100/2124 18008KT P6SM SKC
     FM210100 00000KT P6SM SCT250
     FM212000 20007KT P6SM SCT080 BKN250=



000
FTUS41 KBGM 202300
TAFBGM
TAF
KBGM 202324Z 2100/2124 20008KT P6SM SKC
     FM210500 18005KT P6SM SCT250
     FM211800 20007KT P6SM BKN250=



000
FTUS41 KBGM 202300
TAFAVP
TAF
KAVP 202324Z 2100/2124 20006KT P6SM SKC
     FM210200 15003KT P6SM SKC
     FM211600 20007KT P6SM SCT250=



000
FTUS41 KBGM 202300
TAFITH
TAF
KITH 202324Z 2100/2124 18009KT P6SM SCT250
     FM210200 15007KT P6SM SCT250
     FM211800 20009KT P6SM SCT100 BKN250=



    US Dept of Commerce
    National Oceanic and Atmospheric Administration
    National Weather Service
    1325 East West Highway
    Silver Spring, MD 20910
    Page Author: NWS Internet Services Team
Disclaimer
Information Quality
Credits
Glossary
Privacy Policy
Freedom of Information Act (FOIA)
About Us
Career Opportunities